sensor_id;sensor_type;location;lat;lon;timestamp;pressure;altitude;pressure_sealevel;temperature;humidity
20889;BME280;10604;51.976;7.594;2023-04-19T00:00:39;102005.66;;;14.08;64.84
20889;BME280;10604;51.976;7.594;2023-04-19T00:03:05;102009.66;;;13.89;64.86
20889;BME280;10604;51.976;7.594;2023-04-19T00:05:31;102002.38;;;13.98;64.62
20889;BME280;10604;51.976;7.594;2023-04-19T00:07:57;102002.56;;;13.91;64.55
20889;BME280;10604;51.976;7.594;2023-04-19T00:10:23;101999.19;;;13.83;65.01
20889;BME280;10604;51.976;7.594;2023-04-19T00:12:48;102007.22;;;13.80;64.97
20889;BME280;10604;51.976;7.594;2023-04-19T00:15:14;101999.50;;;13.70;64.98
20889;BME280;10604;51.976;7.594;2023-04-19T00:17:39;101999.59;;;13.64;64.78
20889;BME280;10604;51.976;7.594;2023-04-19T00:20:06;101995.81;;;13.76;64.49
20889;BME280;10604;51.976;7.594;2023-04-19T00:22:32;101993.41;;;13.65;64.77
20889;BME280;10604;51.976;7.594;2023-04-19T00:24:57;101985.66;;;13.56;64.79
20889;BME280;10604;51.976;7.594;2023-04-19T00:27:23;101983.50;;;13.73;63.88
20889;BME280;10604;51.976;7.594;2023-04-19T00:29:48;101996.88;;;13.67;64.03
20889;BME280;10604;51.976;7.594;2023-04-19T00:32:14;101989.13;;;13.58;64.41
20889;BME280;10604;51.976;7.594;2023-04-19T00:34:40;101990.31;;;13.45;64.19
20889;BME280;10604;51.976;7.594;2023-04-19T00:37:08;101990.13;;;13.54;64.31
20889;BME280;10604;51.976;7.594;2023-04-19T00:39:35;101982.03;;;13.60;64.01
20889;BME280;10604;51.976;7.594;2023-04-19T00:42:00;101982.84;;;13.64;63.36
20889;BME280;10604;51.976;7.594;2023-04-19T00:44:26;101977.00;;;13.48;64.10
20889;BME280;10604;51.976;7.594;2023-04-19T00:46:52;101970.09;;;13.41;64.63
20889;BME280;10604;51.976;7.594;2023-04-19T00:49:19;101968.41;;;13.37;64.17
20889;BME280;10604;51.976;7.594;2023-04-19T00:51:45;101976.88;;;13.14;64.87
20889;BME280;10604;51.976;7.594;2023-04-19T00:54:12;101971.22;;;13.29;64.49
20889;BME280;10604;51.976;7.594;2023-04-19T00:56:39;101970.59;;;13.17;65.20
20889;BME280;10604;51.976;7.594;2023-04-19T00:59:04;101970.56;;;13.20;64.89
20889;BME280;10604;51.976;7.594;2023-04-19T01:01:31;101974.03;;;13.22;64.65
20889;BME280;10604;51.976;7.594;2023-04-19T01:03:56;101970.59;;;13.17;64.79
20889;BME280;10604;51.976;7.594;2023-04-19T01:06:22;101969.69;;;13.19;64.91
20889;BME280;10604;51.976;7.594;2023-04-19T01:08:48;101968.84;;;13.16;64.86
20889;BME280;10604;51.976;7.594;2023-04-19T01:11:13;101977.00;;;13.05;65.08
20889;BME280;10604;51.976;7.594;2023-04-19T01:13:38;101972.19;;;13.27;64.66
20889;BME280;10604;51.976;7.594;2023-04-19T01:16:05;101971.31;;;13.26;64.81
20889;BME280;10604;51.976;7.594;2023-04-19T01:18:31;101971.63;;;13.51;64.07
20889;BME280;10604;51.976;7.594;2023-04-19T01:21:02;101973.00;;;13.29;64.51
20889;BME280;10604;51.976;7.594;2023-04-19T01:23:27;101972.34;;;13.18;65.00
20889;BME280;10604;51.976;7.594;2023-04-19T01:25:53;101968.69;;;13.25;64.80
20889;BME280;10604;51.976;7.594;2023-04-19T01:28:18;101966.94;;;13.24;65.03
20889;BME280;10604;51.976;7.594;2023-04-19T01:30:43;101975.84;;;13.20;65.15
20889;BME280;10604;51.976;7.594;2023-04-19T01:33:09;101971.06;;;13.37;64.28
20889;BME280;10604;51.976;7.594;2023-04-19T01:35:34;101964.06;;;13.35;64.75
20889;BME280;10604;51.976;7.594;2023-04-19T01:37:59;101967.09;;;13.15;64.96
20889;BME280;10604;51.976;7.594;2023-04-19T01:40:26;101972.31;;;13.21;64.94
20889;BME280;10604;51.976;7.594;2023-04-19T01:42:51;101973.22;;;13.20;64.99
20889;BME280;10604;51.976;7.594;2023-04-19T01:45:17;101975.91;;;13.17;64.92
20889;BME280;10604;51.976;7.594;2023-04-19T01:47:42;101972.31;;;13.21;64.42
20889;BME280;10604;51.976;7.594;2023-04-19T01:50:08;101974.38;;;13.04;64.74
20889;BME280;10604;51.976;7.594;2023-04-19T01:52:33;101964.81;;;12.97;64.71
20889;BME280;10604;51.976;7.594;2023-04-19T01:54:59;101974.03;;;13.22;63.89
20889;BME280;10604;51.976;7.594;2023-04-19T01:57:24;101963.25;;;13.31;63.59
20889;BME280;10604;51.976;7.594;2023-04-19T01:59:52;101978.44;;;13.23;63.64
20889;BME280;10604;51.976;7.594;2023-04-19T02:02:17;101970.69;;;13.14;63.41
20889;BME280;10604;51.976;7.594;2023-04-19T02:04:42;101970.69;;;13.14;63.14
20889;BME280;10604;51.976;7.594;2023-04-19T02:07:08;101972.59;;;13.06;63.37
20889;BME280;10604;51.976;7.594;2023-04-19T02:09:35;101967.19;;;13.09;63.07
20889;BME280;10604;51.976;7.594;2023-04-19T02:12:00;101962.00;;;13.06;63.12
20889;BME280;10604;51.976;7.594;2023-04-19T02:14:26;101965.66;;;13.00;62.70
20889;BME280;10604;51.976;7.594;2023-04-19T02:16:51;101970.88;;;13.02;62.90
20889;BME280;10604;51.976;7.594;2023-04-19T02:19:17;101968.94;;;13.13;62.56
20889;BME280;10604;51.976;7.594;2023-04-19T02:21:42;101960.38;;;12.99;62.91
20889;BME280;10604;51.976;7.594;2023-04-19T02:24:07;101967.28;;;13.06;62.21
20889;BME280;10604;51.976;7.594;2023-04-19T02:26:33;101960.66;;;12.83;62.51
20889;BME280;10604;51.976;7.594;2023-04-19T02:28:59;101964.25;;;12.81;62.46
20889;BME280;10604;51.976;7.594;2023-04-19T02:31:24;101967.00;;;12.75;62.00
20889;BME280;10604;51.976;7.594;2023-04-19T02:33:49;101964.03;;;12.91;61.11
20889;BME280;10604;51.976;7.594;2023-04-19T02:36:15;101962.03;;;13.03;60.83
20889;BME280;10604;51.976;7.594;2023-04-19T02:38:40;101964.72;;;13.01;61.57
20889;BME280;10604;51.976;7.594;2023-04-19T02:41:06;101961.84;;;13.12;60.88
20889;BME280;10604;51.976;7.594;2023-04-19T02:43:31;101957.41;;;12.69;61.09
20889;BME280;10604;51.976;7.594;2023-04-19T02:45:57;101958.28;;;12.70;60.79
20889;BME280;10604;51.976;7.594;2023-04-19T02:48:22;101962.53;;;12.78;60.45
20889;BME280;10604;51.976;7.594;2023-04-19T02:50:47;101966.91;;;12.79;60.46
20889;BME280;10604;51.976;7.594;2023-04-19T02:53:13;101964.72;;;12.57;59.89
20889;BME280;10604;51.976;7.594;2023-04-19T02:55:38;101968.28;;;12.54;59.39
20889;BME280;10604;51.976;7.594;2023-04-19T02:58:03;101971.69;;;12.61;59.18
20889;BME280;10604;51.976;7.594;2023-04-19T03:00:29;101976.97;;;12.61;58.93
20889;BME280;10604;51.976;7.594;2023-04-19T03:02:55;101971.78;;;12.56;57.92
20889;BME280;10604;51.976;7.594;2023-04-19T03:05:21;101978.59;;;12.69;58.03
20889;BME280;10604;51.976;7.594;2023-04-19T03:07:47;101971.78;;;12.56;58.35
20889;BME280;10604;51.976;7.594;2023-04-19T03:10:12;101973.53;;;12.57;58.25
20889;BME280;10604;51.976;7.594;2023-04-19T03:12:37;101977.84;;;12.63;57.21
20889;BME280;10604;51.976;7.594;2023-04-19T03:15:03;101975.22;;;12.61;56.44
20889;BME280;10604;51.976;7.594;2023-04-19T03:17:29;101974.97;;;12.73;55.94
20889;BME280;10604;51.976;7.594;2023-04-19T03:19:54;101973.69;;;12.48;57.04
20889;BME280;10604;51.976;7.594;2023-04-19T03:22:20;101973.97;;;12.33;56.63
20889;BME280;10604;51.976;7.594;2023-04-19T03:24:46;101971.19;;;12.39;55.47
20889;BME280;10604;51.976;7.594;2023-04-19T03:27:11;101972.34;;;12.23;54.48
20889;BME280;10604;51.976;7.594;2023-04-19T03:29:36;101966.94;;;12.30;53.97
20889;BME280;10604;51.976;7.594;2023-04-19T03:32:02;101966.75;;;12.41;53.25
20889;BME280;10604;51.976;7.594;2023-04-19T03:34:27;101967.50;;;12.49;52.46
20889;BME280;10604;51.976;7.594;2023-04-19T03:36:54;101969.94;;;12.10;51.27
20889;BME280;10604;51.976;7.594;2023-04-19T03:39:19;101970.34;;;12.37;50.37
20889;BME280;10604;51.976;7.594;2023-04-19T03:41:45;101960.75;;;12.31;50.46
20889;BME280;10604;51.976;7.594;2023-04-19T03:44:10;101963.25;;;12.39;49.49
20889;BME280;10604;51.976;7.594;2023-04-19T03:46:35;101957.34;;;12.25;49.49
20889;BME280;10604;51.976;7.594;2023-04-19T03:49:01;101965.28;;;12.25;49.27
20889;BME280;10604;51.976;7.594;2023-04-19T03:51:26;101968.38;;;11.99;48.75
20889;BME280;10604;51.976;7.594;2023-04-19T03:53:51;101961.88;;;12.16;48.19
20889;BME280;10604;51.976;7.594;2023-04-19T03:56:17;101959.25;;;12.15;48.09
20889;BME280;10604;51.976;7.594;2023-04-19T03:58:42;101959.44;;;12.06;47.35
20889;BME280;10604;51.976;7.594;2023-04-19T04:01:07;101962.13;;;12.01;49.19
20889;BME280;10604;51.976;7.594;2023-04-19T04:03:41;101961.78;;;12.23;48.07
20889;BME280;10604;51.976;7.594;2023-04-19T04:06:06;101967.53;;;11.94;49.10
20889;BME280;10604;51.976;7.594;2023-04-19T04:08:32;101964.72;;;12.07;48.73
20889;BME280;10604;51.976;7.594;2023-04-19T04:10:57;101969.41;;;11.87;49.73
20889;BME280;10604;51.976;7.594;2023-04-19T04:13:22;101971.31;;;11.79;48.99
20889;BME280;10604;51.976;7.594;2023-04-19T04:15:48;101972.22;;;11.78;49.86
20889;BME280;10604;51.976;7.594;2023-04-19T04:18:13;101979.00;;;11.94;49.87
20889;BME280;10604;51.976;7.594;2023-04-19T04:20:39;101975.28;;;12.07;50.03
20889;BME280;10604;51.976;7.594;2023-04-19T04:23:05;101979.31;;;11.74;50.18
20889;BME280;10604;51.976;7.594;2023-04-19T04:25:31;101982.00;;;11.70;50.07
20889;BME280;10604;51.976;7.594;2023-04-19T04:27:57;101978.59;;;11.62;50.76
20889;BME280;10604;51.976;7.594;2023-04-19T04:30:22;101982.09;;;11.64;50.04
20889;BME280;10604;51.976;7.594;2023-04-19T04:32:47;101981.19;;;11.65;49.88
20889;BME280;10604;51.976;7.594;2023-04-19T04:35:15;101977.28;;;11.27;50.41
20889;BME280;10604;51.976;7.594;2023-04-19T04:37:41;101982.66;;;11.21;50.48
20889;BME280;10604;51.976;7.594;2023-04-19T04:40:07;101980.91;;;11.20;50.46
20889;BME280;10604;51.976;7.594;2023-04-19T04:42:33;101982.59;;;11.24;51.01
20889;BME280;10604;51.976;7.594;2023-04-19T04:44:58;101989.56;;;11.31;50.81
20889;BME280;10604;51.976;7.594;2023-04-19T04:47:29;101977.28;;;11.27;50.06
20889;BME280;10604;51.976;7.594;2023-04-19T04:49:55;101984.13;;;11.44;49.88
20889;BME280;10604;51.976;7.594;2023-04-19T04:52:21;101989.63;;;11.28;50.40
20889;BME280;10604;51.976;7.594;2023-04-19T04:54:46;101986.22;;;11.17;49.24
20889;BME280;10604;51.976;7.594;2023-04-19T04:57:11;101989.63;;;11.25;49.87
20889;BME280;10604;51.976;7.594;2023-04-19T04:59:37;102000.44;;;11.06;49.47
20889;BME280;10604;51.976;7.594;2023-04-19T05:02:02;101994.28;;;11.05;48.78
20889;BME280;10604;51.976;7.594;2023-04-19T05:04:27;101993.31;;;11.12;48.16
20889;BME280;10604;51.976;7.594;2023-04-19T05:06:53;101995.09;;;11.10;49.27
20889;BME280;10604;51.976;7.594;2023-04-19T05:09:18;101999.56;;;11.07;49.06
20889;BME280;10604;51.976;7.594;2023-04-19T05:11:43;101995.28;;;10.95;48.33
20889;BME280;10604;51.976;7.594;2023-04-19T05:14:09;101997.03;;;10.96;48.59
20889;BME280;10604;51.976;7.594;2023-04-19T05:16:34;101993.34;;;11.09;48.75
20889;BME280;10604;51.976;7.594;2023-04-19T05:18:59;101995.88;;;11.20;48.11
20889;BME280;10604;51.976;7.594;2023-04-19T05:21:25;101998.72;;;11.03;48.22
20889;BME280;10604;51.976;7.594;2023-04-19T05:23:51;101998.88;;;10.88;48.84
20889;BME280;10604;51.976;7.594;2023-04-19T05:26:17;102008.28;;;11.12;47.35
20889;BME280;10604;51.976;7.594;2023-04-19T05:28:43;102002.22;;;11.05;47.42
20889;BME280;10604;51.976;7.594;2023-04-19T05:31:10;102014.72;;;10.88;47.30
20889;BME280;10604;51.976;7.594;2023-04-19T05:33:35;102018.94;;;11.03;47.75
20889;BME280;10604;51.976;7.594;2023-04-19T05:36:01;102009.28;;;11.03;47.17
20889;BME280;10604;51.976;7.594;2023-04-19T05:38:26;102015.56;;;10.91;47.83
20889;BME280;10604;51.976;7.594;2023-04-19T05:40:52;102018.44;;;10.69;48.26
20889;BME280;10604;51.976;7.594;2023-04-19T05:43:17;102017.56;;;10.67;48.61
20889;BME280;10604;51.976;7.594;2023-04-19T05:45:42;102014.03;;;10.72;48.08
20889;BME280;10604;51.976;7.594;2023-04-19T05:48:08;102013.16;;;10.72;48.13
20889;BME280;10604;51.976;7.594;2023-04-19T05:50:34;102002.59;;;10.72;48.08
20889;BME280;10604;51.976;7.594;2023-04-19T05:53:00;102004.22;;;10.82;48.51
20889;BME280;10604;51.976;7.594;2023-04-19T05:55:26;102007.81;;;10.75;48.09
20889;BME280;10604;51.976;7.594;2023-04-19T05:57:51;102002.59;;;10.72;48.52
20889;BME280;10604;51.976;7.594;2023-04-19T06:00:17;102002.28;;;10.99;47.62
20889;BME280;10604;51.976;7.594;2023-04-19T06:02:43;102009.41;;;10.94;48.12
20889;BME280;10604;51.976;7.594;2023-04-19T06:05:11;102000.63;;;10.89;48.01
20889;BME280;10604;51.976;7.594;2023-04-19T06:07:37;102004.34;;;10.73;47.93
20889;BME280;10604;51.976;7.594;2023-04-19T06:10:02;102001.63;;;10.79;48.34
20889;BME280;10604;51.976;7.594;2023-04-19T06:12:28;102012.28;;;10.67;48.65
20889;BME280;10604;51.976;7.594;2023-04-19T06:14:53;102007.81;;;10.75;48.38
20889;BME280;10604;51.976;7.594;2023-04-19T06:17:18;102003.41;;;10.75;48.24
20889;BME280;10604;51.976;7.594;2023-04-19T06:19:50;102002.66;;;10.63;48.08
20889;BME280;10604;51.976;7.594;2023-04-19T06:22:16;101994.88;;;10.50;48.45
20889;BME280;10604;51.976;7.594;2023-04-19T06:24:43;102006.19;;;10.62;48.61
20889;BME280;10604;51.976;7.594;2023-04-19T06:27:09;102006.75;;;10.92;48.38
20889;BME280;10604;51.976;7.594;2023-04-19T06:29:34;102009.56;;;10.79;48.40
20889;BME280;10604;51.976;7.594;2023-04-19T06:31:59;102013.28;;;10.56;48.93
20889;BME280;10604;51.976;7.594;2023-04-19T06:34:25;102005.38;;;10.55;49.11
20889;BME280;10604;51.976;7.594;2023-04-19T06:36:50;102020.06;;;10.82;48.45
20889;BME280;10604;51.976;7.594;2023-04-19T06:39:16;102015.72;;;10.75;48.82
20889;BME280;10604;51.976;7.594;2023-04-19T06:41:42;102025.16;;;11.00;48.55
20889;BME280;10604;51.976;7.594;2023-04-19T06:44:07;102023.53;;;10.87;48.16
20889;BME280;10604;51.976;7.594;2023-04-19T06:46:32;102031.34;;;10.97;48.45
20889;BME280;10604;51.976;7.594;2023-04-19T06:48:58;102028.69;;;10.99;48.21
20889;BME280;10604;51.976;7.594;2023-04-19T06:51:23;102031.25;;;11.07;48.14
20889;BME280;10604;51.976;7.594;2023-04-19T06:53:49;102037.19;;;11.25;48.15
20889;BME280;10604;51.976;7.594;2023-04-19T06:56:15;102036.53;;;11.07;47.98
20889;BME280;10604;51.976;7.594;2023-04-19T06:58:40;102028.53;;;11.14;47.42
20889;BME280;10604;51.976;7.594;2023-04-19T07:01:05;102032.50;;;11.47;46.56
20889;BME280;10604;51.976;7.594;2023-04-19T07:03:31;102036.72;;;11.62;46.98
20889;BME280;10604;51.976;7.594;2023-04-19T07:05:57;102031.63;;;11.47;46.71
20889;BME280;10604;51.976;7.594;2023-04-19T07:08:23;102036.59;;;11.71;46.49
20889;BME280;10604;51.976;7.594;2023-04-19T07:10:49;102020.28;;;11.37;46.07
20889;BME280;10604;51.976;7.594;2023-04-19T07:13:14;102029.75;;;11.58;46.64
20889;BME280;10604;51.976;7.594;2023-04-19T07:15:39;102037.53;;;11.67;47.08
20889;BME280;10604;51.976;7.594;2023-04-19T07:18:05;102033.22;;;11.60;46.74
20889;BME280;10604;51.976;7.594;2023-04-19T07:20:30;102028.56;;;11.80;45.60
20889;BME280;10604;51.976;7.594;2023-04-19T07:22:59;102036.69;;;11.65;47.35
20889;BME280;10604;51.976;7.594;2023-04-19T07:25:25;102026.06;;;11.68;45.92
20889;BME280;10604;51.976;7.594;2023-04-19T07:27:54;102024.28;;;11.70;46.40
20889;BME280;10604;51.976;7.594;2023-04-19T07:30:20;102035.28;;;12.01;46.79
20889;BME280;10604;51.976;7.594;2023-04-19T07:32:46;102036.13;;;12.06;45.35
20889;BME280;10604;51.976;7.594;2023-04-19T07:35:11;102026.25;;;12.17;44.58
20889;BME280;10604;51.976;7.594;2023-04-19T07:37:37;102032.50;;;12.11;44.80
20889;BME280;10604;51.976;7.594;2023-04-19T07:40:03;102027.19;;;12.14;44.89
20889;BME280;10604;51.976;7.594;2023-04-19T07:42:29;102020.63;;;12.37;44.68
20889;BME280;10604;51.976;7.594;2023-04-19T07:44:55;102030.69;;;12.66;43.81
20889;BME280;10604;51.976;7.594;2023-04-19T07:47:20;102022.63;;;12.73;44.49
20889;BME280;10604;51.976;7.594;2023-04-19T07:49:46;102023.66;;;13.14;43.70
20889;BME280;10604;51.976;7.594;2023-04-19T07:52:11;102021.72;;;13.22;43.93
20889;BME280;10604;51.976;7.594;2023-04-19T07:54:37;102011.75;;;13.75;42.72
20889;BME280;10604;51.976;7.594;2023-04-19T07:57:03;102011.19;;;13.60;42.05
20889;BME280;10604;51.976;7.594;2023-04-19T07:59:29;102019.66;;;13.36;42.49
20889;BME280;10604;51.976;7.594;2023-04-19T08:01:57;102014.84;;;13.12;43.08
20889;BME280;10604;51.976;7.594;2023-04-19T08:04:23;102012.72;;;13.29;42.64
20889;BME280;10604;51.976;7.594;2023-04-19T08:06:48;102014.16;;;13.45;42.40
20889;BME280;10604;51.976;7.594;2023-04-19T08:09:14;102004.38;;;13.49;42.14
20889;BME280;10604;51.976;7.594;2023-04-19T08:11:39;102004.66;;;13.77;42.04
20889;BME280;10604;51.976;7.594;2023-04-19T08:14:04;102024.22;;;14.08;41.94
20889;BME280;10604;51.976;7.594;2023-04-19T08:16:30;102004.78;;;14.07;41.71
20889;BME280;10604;51.976;7.594;2023-04-19T08:18:55;102009.81;;;14.20;41.05
20889;BME280;10604;51.976;7.594;2023-04-19T08:21:20;102008.94;;;14.19;40.81
20889;BME280;10604;51.976;7.594;2023-04-19T08:23:46;102003.25;;;14.34;40.23
20889;BME280;10604;51.976;7.594;2023-04-19T08:26:12;102004.66;;;14.14;40.52
20889;BME280;10604;51.976;7.594;2023-04-19T08:28:37;102017.22;;;14.42;40.71
20889;BME280;10604;51.976;7.594;2023-04-19T08:31:06;102012.22;;;14.64;39.99
20889;BME280;10604;51.976;7.594;2023-04-19T08:33:32;101997.44;;;14.88;38.88
20889;BME280;10604;51.976;7.594;2023-04-19T08:35:57;102005.16;;;14.97;38.79
20889;BME280;10604;51.976;7.594;2023-04-19T08:38:22;102005.03;;;15.00;38.22
20889;BME280;10604;51.976;7.594;2023-04-19T08:40:52;102002.75;;;14.56;39.46
20889;BME280;10604;51.976;7.594;2023-04-19T08:43:19;102001.81;;;14.89;39.30
20889;BME280;10604;51.976;7.594;2023-04-19T08:45:48;102009.97;;;14.83;37.53
20889;BME280;10604;51.976;7.594;2023-04-19T08:48:15;102002.88;;;14.83;37.71
20889;BME280;10604;51.976;7.594;2023-04-19T08:50:41;101988.28;;;14.66;36.35
20889;BME280;10604;51.976;7.594;2023-04-19T08:53:08;101985.84;;;15.21;36.38
20889;BME280;10604;51.976;7.594;2023-04-19T08:55:36;101984.66;;;15.32;37.07
20889;BME280;10604;51.976;7.594;2023-04-19T08:58:03;101975.19;;;15.51;36.88
20889;BME280;10604;51.976;7.594;2023-04-19T09:00:28;101985.97;;;14.86;36.84
20889;BME280;10604;51.976;7.594;2023-04-19T09:02:54;101985.03;;;15.19;37.03
20889;BME280;10604;51.976;7.594;2023-04-19T09:05:20;101974.19;;;16.12;36.21
20889;BME280;10604;51.976;7.594;2023-04-19T09:07:46;101974.34;;;16.34;35.05
20889;BME280;10604;51.976;7.594;2023-04-19T09:10:17;101972.56;;;16.59;34.68
20889;BME280;10604;51.976;7.594;2023-04-19T09:12:43;101967.63;;;16.73;32.87
20889;BME280;10604;51.976;7.594;2023-04-19T09:15:37;101970.63;;;16.89;33.29
20889;BME280;10604;51.976;7.594;2023-04-19T09:18:05;101957.47;;;16.58;32.62
20889;BME280;10604;51.976;7.594;2023-04-19T09:20:49;101964.75;;;16.79;32.09
20889;BME280;10604;51.976;7.594;2023-04-19T09:23:17;101941.25;;;17.14;30.80
20889;BME280;10604;51.976;7.594;2023-04-19T09:25:59;101951.91;;;17.14;31.25
20889;BME280;10604;51.976;7.594;2023-04-19T09:28:26;101941.69;;;16.78;31.15
20889;BME280;10604;51.976;7.594;2023-04-19T09:30:53;101952.19;;;16.83;31.36
20889;BME280;10604;51.976;7.594;2023-04-19T09:33:36;101939.03;;;16.78;31.11
20889;BME280;10604;51.976;7.594;2023-04-19T09:36:04;101940.41;;;17.35;30.40
20889;BME280;10604;51.976;7.594;2023-04-19T09:38:45;101942.22;;;16.88;30.67
20889;BME280;10604;51.976;7.594;2023-04-19T09:41:10;101942.72;;;16.74;30.02
20889;BME280;10604;51.976;7.594;2023-04-19T09:43:36;101937.81;;;16.87;29.33
20889;BME280;10604;51.976;7.594;2023-04-19T09:46:01;101943.47;;;16.53;29.58
20889;BME280;10604;51.976;7.594;2023-04-19T09:48:26;101948.44;;;17.12;29.94
20889;BME280;10604;51.976;7.594;2023-04-19T09:53:18;101933.00;;;17.43;30.32
20889;BME280;10604;51.976;7.594;2023-04-19T09:55:45;101930.88;;;17.75;30.57
20889;BME280;10604;51.976;7.594;2023-04-19T09:58:12;101929.38;;;18.11;29.36
20889;BME280;10604;51.976;7.594;2023-04-19T10:00:38;101925.34;;;17.79;30.11
20889;BME280;10604;51.976;7.594;2023-04-19T10:03:05;101923.66;;;18.81;29.67
20889;BME280;10604;51.976;7.594;2023-04-19T10:05:33;101935.34;;;18.97;29.03
20889;BME280;10604;51.976;7.594;2023-04-19T10:08:01;101925.91;;;18.50;29.19
20889;BME280;10604;51.976;7.594;2023-04-19T10:10:28;101920.81;;;19.23;29.32
20889;BME280;10604;51.976;7.594;2023-04-19T10:12:56;101920.59;;;19.65;29.98
20889;BME280;10604;51.976;7.594;2023-04-19T10:15:24;101928.09;;;20.46;28.45
20889;BME280;10604;51.976;7.594;2023-04-19T10:17:51;101919.84;;;19.98;27.99
20889;BME280;10604;51.976;7.594;2023-04-19T10:20:41;101911.47;;;21.23;27.65
20889;BME280;10604;51.976;7.594;2023-04-19T10:23:11;101914.16;;;21.38;27.68
20889;BME280;10604;51.976;7.594;2023-04-19T10:25:37;101912.50;;;21.20;28.03
20889;BME280;10604;51.976;7.594;2023-04-19T10:28:02;101905.13;;;22.02;27.78
20889;BME280;10604;51.976;7.594;2023-04-19T10:30:28;101903.41;;;22.59;26.98
20889;BME280;10604;51.976;7.594;2023-04-19T10:32:59;101901.97;;;21.94;27.25
20889;BME280;10604;51.976;7.594;2023-04-19T10:35:33;101905.78;;;21.90;27.08
20889;BME280;10604;51.976;7.594;2023-04-19T10:38:03;101890.88;;;21.06;27.63
20889;BME280;10604;51.976;7.594;2023-04-19T10:43:20;101888.84;;;21.27;27.32
20889;BME280;10604;51.976;7.594;2023-04-19T10:45:46;101885.63;;;22.57;26.43
20889;BME280;10604;51.976;7.594;2023-04-19T10:48:36;101880.84;;;21.88;26.74
20889;BME280;10604;51.976;7.594;2023-04-19T10:51:11;101860.63;;;21.35;27.02
20889;BME280;10604;51.976;7.594;2023-04-19T10:54:00;101862.72;;;21.92;27.17
20889;BME280;10604;51.976;7.594;2023-04-19T11:03:59;101844.28;;;21.85;26.75
20889;BME280;10604;51.976;7.594;2023-04-19T11:06:24;101836.78;;;21.61;26.70
20889;BME280;10604;51.976;7.594;2023-04-19T11:08:52;101823.34;;;22.06;26.59
20889;BME280;10604;51.976;7.594;2023-04-19T11:11:18;101836.91;;;21.43;26.46
20889;BME280;10604;51.976;7.594;2023-04-19T11:13:46;101823.28;;;21.15;25.75
20889;BME280;10604;51.976;7.594;2023-04-19T11:16:12;101816.19;;;20.98;26.88
20889;BME280;10604;51.976;7.594;2023-04-19T11:18:37;101823.84;;;21.67;26.74
20889;BME280;10604;51.976;7.594;2023-04-19T11:21:03;101822.59;;;20.96;27.48
20889;BME280;10604;51.976;7.594;2023-04-19T11:23:28;101814.34;;;21.46;26.87
20889;BME280;10604;51.976;7.594;2023-04-19T11:25:54;101803.44;;;21.65;26.99
20889;BME280;10604;51.976;7.594;2023-04-19T11:28:20;101805.41;;;21.91;26.56
20889;BME280;10604;51.976;7.594;2023-04-19T11:30:46;101809.91;;;22.06;26.08
20889;BME280;10604;51.976;7.594;2023-04-19T11:33:12;101799.41;;;21.72;25.63
20889;BME280;10604;51.976;7.594;2023-04-19T11:35:38;101790.25;;;21.90;25.64
20889;BME280;10604;51.976;7.594;2023-04-19T11:38:04;101788.13;;;22.53;26.83
20889;BME280;10604;51.976;7.594;2023-04-19T11:40:30;101795.22;;;22.69;25.70
20889;BME280;10604;51.976;7.594;2023-04-19T11:43:00;101788.13;;;22.82;24.96
20889;BME280;10604;51.976;7.594;2023-04-19T11:45:35;101775.75;;;22.08;25.58
20889;BME280;10604;51.976;7.594;2023-04-19T11:48:01;101774.91;;;21.92;25.97
20889;BME280;10604;51.976;7.594;2023-04-19T11:50:33;101773.63;;;21.24;25.46
20889;BME280;10604;51.976;7.594;2023-04-19T11:53:09;101768.22;;;21.69;25.23
20889;BME280;10604;51.976;7.594;2023-04-19T11:55:34;101765.94;;;22.50;26.25
20889;BME280;10604;51.976;7.594;2023-04-19T11:58:00;101756.31;;;22.60;25.29
20889;BME280;10604;51.976;7.594;2023-04-19T12:00:26;101757.09;;;22.48;24.75
20889;BME280;10604;51.976;7.594;2023-04-19T12:02:53;101750.78;;;22.49;24.38
20889;BME280;10604;51.976;7.594;2023-04-19T12:05:18;101752.16;;;21.54;25.10
20889;BME280;10604;51.976;7.594;2023-04-19T12:08:03;101746.91;;;21.96;25.24
20889;BME280;10604;51.976;7.594;2023-04-19T12:10:29;101751.47;;;21.50;26.33
20889;BME280;10604;51.976;7.594;2023-04-19T12:12:55;101746.34;;;21.75;26.82
20889;BME280;10604;51.976;7.594;2023-04-19T12:15:20;101741.03;;;21.45;25.49
20889;BME280;10604;51.976;7.594;2023-04-19T12:17:58;101739.19;;;21.90;26.17
20889;BME280;10604;51.976;7.594;2023-04-19T12:20:35;101731.91;;;21.92;26.97
20889;BME280;10604;51.976;7.594;2023-04-19T12:23:00;101741.66;;;22.51;26.36
20889;BME280;10604;51.976;7.594;2023-04-19T12:25:30;101731.53;;;22.55;24.94
20889;BME280;10604;51.976;7.594;2023-04-19T12:27:55;101725.28;;;23.36;25.36
20889;BME280;10604;51.976;7.594;2023-04-19T12:30:21;101726.69;;;24.32;24.42
20889;BME280;10604;51.976;7.594;2023-04-19T12:32:46;101730.31;;;23.80;24.00
20889;BME280;10604;51.976;7.594;2023-04-19T12:35:11;101727.56;;;24.20;25.32
20889;BME280;10604;51.976;7.594;2023-04-19T12:37:37;101715.88;;;24.32;24.02
20889;BME280;10604;51.976;7.594;2023-04-19T12:40:02;101713.06;;;23.70;23.64
20889;BME280;10604;51.976;7.594;2023-04-19T12:42:28;101702.41;;;24.32;25.13
20889;BME280;10604;51.976;7.594;2023-04-19T12:44:53;101714.13;;;23.55;24.05
20889;BME280;10604;51.976;7.594;2023-04-19T12:47:18;101720.63;;;22.99;23.92
20889;BME280;10604;51.976;7.594;2023-04-19T12:49:43;101709.03;;;22.70;23.91
20889;BME280;10604;51.976;7.594;2023-04-19T12:52:09;101707.31;;;22.69;24.07
20889;BME280;10604;51.976;7.594;2023-04-19T12:54:34;101725.34;;;23.49;23.77
20889;BME280;10604;51.976;7.594;2023-04-19T12:56:59;101708.44;;;23.33;23.93
20889;BME280;10604;51.976;7.594;2023-04-19T12:59:25;101715.69;;;23.06;24.38